createdAt,value
2022-09-12T00:01:23.631Z,100497.88
2022-09-12T00:03:49.950Z,100487.47
2022-09-12T00:06:19.274Z,100491.34
2022-09-12T00:08:48.955Z,100493.53
2022-09-12T00:11:15.224Z,100487.72
2022-09-12T00:13:41.982Z,100491.56
2022-09-12T00:16:08.358Z,100491.16
2022-09-12T00:18:34.714Z,100494.56
2022-09-12T00:21:01.450Z,100492.75
2022-09-12T00:23:27.706Z,100482.75
2022-09-12T00:25:53.971Z,100484.47
2022-09-12T00:28:20.399Z,100491.72
2022-09-12T00:30:46.652Z,100493.31
2022-09-12T00:33:12.957Z,100481.50
2022-09-12T00:35:39.237Z,100486.03
2022-09-12T00:38:05.509Z,100487.59
2022-09-12T00:40:31.770Z,100496.72
2022-09-12T00:42:58.160Z,100496.72
2022-09-12T00:45:24.477Z,100489.31
2022-09-12T00:47:50.751Z,100487.59
2022-09-12T00:50:17.024Z,100480.47
2022-09-12T00:52:43.281Z,100480.63
2022-09-12T00:55:09.657Z,100475.34
2022-09-12T00:57:35.908Z,100480.47
2022-09-12T01:00:02.217Z,100485.84
2022-09-12T01:02:28.507Z,100484.16
2022-09-12T01:04:55.380Z,100476.75
2022-09-12T01:07:21.644Z,100480.59
2022-09-12T01:09:47.914Z,100476.75
2022-09-12T01:12:14.197Z,100475.53
2022-09-12T01:14:40.477Z,100468.88
2022-09-12T01:17:06.761Z,100471.56
2022-09-12T01:19:33.084Z,100478.53
2022-09-12T01:21:59.374Z,100468.44
2022-09-12T01:24:26.165Z,100477.81
2022-09-12T01:26:52.415Z,100470.94
2022-09-12T01:29:18.696Z,100475.94
2022-09-12T01:31:45.011Z,100479.47
2022-09-12T01:34:11.282Z,100470.06
2022-09-12T01:36:38.144Z,100471.91
2022-09-12T01:39:04.416Z,100474.97
2022-09-12T01:41:30.845Z,100471.19
2022-09-12T01:43:57.756Z,100471.06
2022-09-12T01:46:24.419Z,100462.94
2022-09-12T01:48:50.799Z,100466.38
2022-09-12T01:51:17.910Z,100459.09
2022-09-12T01:53:44.108Z,100465.34
2022-09-12T01:56:10.706Z,100461.50
2022-09-12T01:58:36.986Z,100451.69
2022-09-12T02:01:03.317Z,100454.38
2022-09-12T02:03:29.831Z,100447.25
2022-09-12T02:05:56.084Z,100454.66
2022-09-12T02:08:22.975Z,100456.25
2022-09-12T02:10:49.227Z,100455.25
2022-09-12T02:13:15.716Z,100452.78
2022-09-12T02:15:41.991Z,100451.19
2022-09-12T02:18:08.255Z,100455.75
2022-09-12T02:20:47.881Z,100447.34
2022-09-12T02:23:15.203Z,100440.69
2022-09-12T02:25:43.041Z,100444.38
2022-09-12T02:28:09.300Z,100444.22
2022-09-12T02:30:35.635Z,100445.38
2022-09-12T02:33:01.940Z,100437.66
2022-09-12T02:35:28.246Z,100445.66
2022-09-12T02:37:54.499Z,100435.84
2022-09-12T02:40:20.824Z,100438.53
2022-09-12T02:42:47.134Z,100439.34
2022-09-12T02:45:13.417Z,100441.91
2022-09-12T02:47:39.716Z,100445.47
2022-09-12T02:50:08.025Z,100434.81
2022-09-12T02:52:34.293Z,100432.94
2022-09-12T02:55:00.578Z,100431.94
2022-09-12T02:57:26.841Z,100439.91
2022-09-12T02:59:53.119Z,100434.53
2022-09-12T03:02:19.392Z,100433.28
2022-09-12T03:04:45.711Z,100440.97
2022-09-12T03:07:12.487Z,100445.34
2022-09-12T03:09:38.769Z,100443.91
2022-09-12T03:12:05.062Z,100458.09
2022-09-12T03:14:31.325Z,100450.44
2022-09-12T03:16:57.604Z,100449.09
2022-09-12T03:19:23.883Z,100447.19
2022-09-12T03:21:50.262Z,100452.44
2022-09-12T03:24:16.540Z,100439.66
2022-09-12T03:26:42.805Z,100444.94
2022-09-12T03:29:09.067Z,100436.72
2022-09-12T03:31:35.329Z,100450.06
2022-09-12T03:34:01.599Z,100442.69
2022-09-12T03:36:27.868Z,100447.81
2022-09-12T03:38:54.129Z,100441.56
2022-09-12T03:41:20.477Z,100439.59
2022-09-12T03:43:46.737Z,100447.59
2022-09-12T03:46:13.561Z,100435.78
2022-09-12T03:48:39.821Z,100446.50
2022-09-12T03:51:06.089Z,100440.59
2022-09-12T03:53:32.366Z,100442.31
2022-09-12T03:55:58.684Z,100445.06
2022-09-12T03:58:25.011Z,100442.97
2022-09-12T04:00:51.296Z,100446.97
2022-09-12T04:03:19.227Z,100444.13
2022-09-12T04:05:46.511Z,100450.16
2022-09-12T04:08:12.783Z,100450.16
2022-09-12T04:10:39.032Z,100452.16
2022-09-12T04:13:05.469Z,100450.50
2022-09-12T04:15:31.746Z,100454.84
2022-09-12T04:17:59.611Z,100453.00
2022-09-12T04:20:28.780Z,100455.56
2022-09-12T04:22:55.036Z,100450.88
2022-09-12T04:25:21.291Z,100450.75
2022-09-12T04:27:47.561Z,100457.66
2022-09-12T04:30:13.826Z,100453.84
2022-09-12T04:32:40.888Z,100449.44
2022-09-12T04:35:07.096Z,100448.31
2022-09-12T04:37:33.374Z,100454.63
2022-09-12T04:39:59.697Z,100450.41
2022-09-12T04:42:25.968Z,100453.13
2022-09-12T04:44:52.255Z,100455.69
2022-09-12T04:47:18.826Z,100457.28
2022-09-12T04:49:45.092Z,100455.56
2022-09-12T04:52:11.352Z,100444.53
2022-09-12T04:54:37.914Z,100459.63
2022-09-12T04:57:04.172Z,100453.00
2022-09-12T04:59:30.428Z,100462.56
2022-09-12T05:01:56.786Z,100474.22
2022-09-12T05:04:23.073Z,100465.84
2022-09-12T05:06:49.550Z,100472.81
2022-09-12T05:09:16.439Z,100475.09
2022-09-12T05:14:29.421Z,100466.59
2022-09-12T05:16:59.735Z,100469.59
2022-09-12T05:19:26.127Z,100473.69
2022-09-12T05:21:52.458Z,100472.88
2022-09-12T05:24:18.766Z,100475.00
2022-09-12T05:26:45.056Z,100480.00
2022-09-12T05:29:11.506Z,100487.00
2022-09-12T05:31:37.929Z,100482.19
2022-09-12T05:34:09.989Z,100482.63
2022-09-12T05:36:42.987Z,100485.19
2022-09-12T05:39:09.251Z,100475.94
2022-09-12T05:41:35.938Z,100483.22
2022-09-12T05:44:02.380Z,100478.78
2022-09-12T05:46:28.711Z,100491.47
2022-09-12T05:48:56.412Z,100491.19
2022-09-12T05:51:22.988Z,100499.50
2022-09-12T05:53:49.245Z,100497.94
2022-09-12T05:56:15.496Z,100493.72
2022-09-12T05:58:42.142Z,100496.19
2022-09-12T06:01:08.509Z,100499.00
2022-09-12T06:03:34.808Z,100506.44
2022-09-12T06:06:01.078Z,100501.25
2022-09-12T06:08:27.347Z,100499.31
2022-09-12T06:10:53.621Z,100500.16
2022-09-12T06:13:19.879Z,100502.56
2022-09-12T06:15:46.168Z,100493.78
2022-09-12T06:18:13.025Z,100501.88
2022-09-12T06:20:39.282Z,100502.66
2022-09-12T06:23:05.545Z,100503.69
2022-09-12T06:25:31.808Z,100504.75
2022-09-12T06:27:58.081Z,100509.72
2022-09-12T06:30:25.546Z,100506.97
2022-09-12T06:32:51.949Z,100500.69
2022-09-12T06:35:18.197Z,100505.47
2022-09-12T06:37:44.472Z,100502.91
2022-09-12T06:40:10.771Z,100503.47
2022-09-12T06:42:37.055Z,100507.34
2022-09-12T06:45:03.331Z,100501.34
2022-09-12T06:47:30.224Z,100508.63
2022-09-12T06:49:56.478Z,100510.19
2022-09-12T06:52:22.954Z,100508.63
2022-09-12T06:54:49.208Z,100517.19
2022-09-12T06:57:15.484Z,100519.59
2022-09-12T06:59:42.386Z,100518.44
2022-09-12T07:02:09.200Z,100527.59
2022-09-12T07:04:37.082Z,100517.28
2022-09-12T07:07:03.370Z,100522.00
2022-09-12T07:09:30.787Z,100514.56
2022-09-12T07:11:57.067Z,100528.28
2022-09-12T07:14:23.325Z,100524.88
2022-09-12T07:16:49.643Z,100525.31
2022-09-12T07:19:15.915Z,100536.56
2022-09-12T07:21:42.428Z,100535.28
2022-09-12T07:24:09.436Z,100537.28
2022-09-12T07:26:35.744Z,100544.38
2022-09-12T07:29:25.195Z,100541.38
2022-09-12T07:31:48.484Z,100536.53
2022-09-12T07:34:14.751Z,100536.69
2022-09-12T07:36:41.021Z,100533.75
2022-09-12T07:39:07.321Z,100540.88
2022-09-12T07:41:33.888Z,100535.22
2022-09-12T07:44:00.177Z,100535.75
2022-09-12T07:46:26.541Z,100537.00
2022-09-12T07:48:52.819Z,100532.53
2022-09-12T07:51:19.075Z,100532.88
2022-09-12T07:53:45.327Z,100531.38
2022-09-12T07:56:11.783Z,100534.69
2022-09-12T07:58:38.045Z,100534.13
2022-09-12T08:01:04.332Z,100538.56
2022-09-12T08:03:30.637Z,100538.25
2022-09-12T08:05:57.036Z,100541.81
2022-09-12T08:08:23.297Z,100545.69
2022-09-12T08:10:49.571Z,100548.66
2022-09-12T08:13:15.831Z,100545.72
2022-09-12T08:15:42.105Z,100547.94
2022-09-12T08:18:08.408Z,100551.66
2022-09-12T08:20:34.672Z,100551.50
2022-09-12T08:23:01.484Z,100554.94
2022-09-12T08:25:28.625Z,100548.88
2022-09-12T08:27:55.695Z,100552.34
2022-09-12T08:30:21.893Z,100555.19
2022-09-12T08:32:48.219Z,100550.53
2022-09-12T08:35:15.063Z,100552.91
2022-09-12T08:37:41.319Z,100558.53
2022-09-12T08:40:08.379Z,100545.16
2022-09-12T08:42:34.972Z,100543.53
2022-09-12T08:45:01.254Z,100548.03
2022-09-12T08:47:27.517Z,100547.72
2022-09-12T08:49:54.053Z,100545.41
2022-09-12T08:52:20.387Z,100540.56
2022-09-12T08:54:46.685Z,100547.41
2022-09-12T08:57:13.167Z,100542.63
2022-09-12T08:59:39.431Z,100552.59
2022-09-12T09:02:06.954Z,100544.59
2022-09-12T09:04:33.232Z,100540.84
2022-09-12T09:06:59.553Z,100546.44
2022-09-12T09:09:25.901Z,100537.75
2022-09-12T09:11:52.320Z,100543.94
2022-09-12T09:14:37.425Z,100543.44
2022-09-12T09:17:03.685Z,100538.19
2022-09-12T09:19:29.962Z,100544.03
2022-09-12T09:21:56.232Z,100548.44
2022-09-12T09:24:22.496Z,100538.00
2022-09-12T09:26:48.745Z,100544.84
2022-09-12T09:29:15.029Z,100541.22
2022-09-12T09:31:41.311Z,100537.84
2022-09-12T09:34:07.587Z,100533.41
2022-09-12T09:36:33.843Z,100534.97
2022-09-12T09:39:00.751Z,100524.09
2022-09-12T09:41:27.009Z,100532.91
2022-09-12T09:43:53.265Z,100530.66
2022-09-12T09:46:19.599Z,100530.59
2022-09-12T09:48:46.058Z,100526.94
2022-09-12T09:51:12.384Z,100520.94
2022-09-12T09:53:38.646Z,100521.16
2022-09-12T09:56:04.916Z,100515.59
2022-09-12T09:58:31.176Z,100520.72
2022-09-12T10:00:57.427Z,100514.47
2022-09-12T10:03:23.694Z,100512.31
2022-09-12T10:05:49.946Z,100509.63
2022-09-12T10:08:16.245Z,100515.28
2022-09-12T10:10:42.513Z,100513.47
2022-09-12T10:13:10.061Z,100514.44
2022-09-12T10:15:39.768Z,100508.72
2022-09-12T10:18:06.088Z,100506.00
2022-09-12T10:20:32.357Z,100510.47
2022-09-12T10:22:58.623Z,100507.75
2022-09-12T10:25:24.893Z,100504.69
2022-09-12T10:27:51.153Z,100506.94
2022-09-12T10:30:17.788Z,100496.78
2022-09-12T10:32:44.089Z,100492.34
2022-09-12T10:35:10.365Z,100496.91
2022-09-12T10:37:36.668Z,100501.50
2022-09-12T10:40:03.650Z,100493.81
2022-09-12T10:42:29.885Z,100495.44
2022-09-12T10:44:56.170Z,100496.28
2022-09-12T10:47:22.436Z,100498.66
2022-09-12T10:49:50.939Z,100494.50
2022-09-12T10:52:17.507Z,100489.78
2022-09-12T10:54:43.813Z,100485.22
2022-09-12T10:57:10.067Z,100479.63
2022-09-12T10:59:36.332Z,100481.38
2022-09-12T11:02:02.665Z,100472.31
2022-09-12T11:04:28.978Z,100471.31
2022-09-12T11:06:55.241Z,100464.13
2022-09-12T11:09:21.580Z,100462.78
2022-09-12T11:11:47.881Z,100465.16
2022-09-12T11:14:14.170Z,100458.03
2022-09-12T11:16:42.951Z,100456.47
2022-09-12T11:19:09.459Z,100462.88
2022-09-12T11:21:35.715Z,100459.03
2022-09-12T11:24:02.243Z,100462.72
2022-09-12T11:26:28.525Z,100467.53
2022-09-12T11:28:54.778Z,100459.00
2022-09-12T11:31:21.052Z,100457.13
2022-09-12T11:33:47.703Z,100462.63
2022-09-12T11:36:14.136Z,100459.94
2022-09-12T11:38:40.391Z,100449.56
2022-09-12T11:41:06.799Z,100455.47
2022-09-12T11:43:33.052Z,100450.16
2022-09-12T11:45:59.369Z,100449.16
2022-09-12T11:48:25.700Z,100455.75
2022-09-12T11:50:52.220Z,100451.03
2022-09-12T11:53:18.501Z,100448.56
2022-09-12T11:55:44.757Z,100452.69
2022-09-12T11:58:12.320Z,100457.84
2022-09-12T12:00:38.594Z,100455.09
2022-09-12T12:03:04.891Z,100461.09
2022-09-12T12:05:31.292Z,100455.38
2022-09-12T12:07:57.547Z,100463.56
2022-09-12T12:10:24.317Z,100463.94
2022-09-12T12:12:50.560Z,100460.34
2022-09-12T12:15:16.856Z,100458.69
2022-09-12T12:17:43.120Z,100457.28
2022-09-12T12:20:09.378Z,100448.16
2022-09-12T12:22:36.010Z,100454.25
2022-09-12T12:25:02.320Z,100451.84
2022-09-12T12:27:28.588Z,100443.00
2022-09-12T12:29:55.324Z,100444.38
2022-09-12T12:32:21.677Z,100438.06
2022-09-12T12:34:47.947Z,100432.78
2022-09-12T12:37:14.201Z,100439.28
2022-09-12T12:39:40.762Z,100434.97
2022-09-12T12:42:07.069Z,100430.88
2022-09-12T12:44:33.357Z,100432.97
2022-09-12T12:46:59.634Z,100423.91
2022-09-12T12:49:26.855Z,100423.69
2022-09-12T12:51:53.126Z,100428.84
2022-09-12T12:54:19.522Z,100424.06
2022-09-12T12:56:45.802Z,100418.53
2022-09-12T12:59:12.213Z,100421.53
2022-09-12T13:01:41.032Z,100419.84
2022-09-12T13:04:08.141Z,100413.53
2022-09-12T13:06:34.331Z,100403.91
2022-09-12T13:09:00.591Z,100400.47
2022-09-12T13:11:26.847Z,100397.25
2022-09-12T13:13:53.505Z,100391.50
2022-09-12T13:16:19.793Z,100388.44
2022-09-12T13:18:47.370Z,100390.81
2022-09-12T13:21:13.648Z,100388.41
2022-09-12T13:23:40.129Z,100383.63
2022-09-12T13:26:06.478Z,100379.94
2022-09-12T13:28:32.745Z,100382.16
2022-09-12T13:30:59.286Z,100379.13
2022-09-12T13:33:25.616Z,100387.28
2022-09-12T13:35:51.903Z,100379.13
2022-09-12T13:38:18.431Z,100387.50
2022-09-12T13:40:44.719Z,100381.63
2022-09-12T13:43:10.990Z,100373.31
2022-09-12T13:45:37.279Z,100377.41
2022-09-12T13:48:03.553Z,100378.00
2022-09-12T13:50:29.804Z,100375.84
2022-09-12T13:52:56.071Z,100367.53
2022-09-12T13:55:22.358Z,100371.53
2022-09-12T13:57:48.608Z,100370.56
2022-09-12T14:00:19.244Z,100368.03
2022-09-12T14:02:45.543Z,100357.25
2022-09-12T14:05:11.920Z,100362.22
2022-09-12T14:07:38.647Z,100361.88
2022-09-12T14:10:05.881Z,100361.94
2022-09-12T14:12:32.390Z,100367.41
2022-09-12T14:14:58.653Z,100361.84
2022-09-12T14:17:25.295Z,100366.94
2022-09-12T14:19:52.922Z,100358.09
2022-09-12T14:22:19.197Z,100356.00
2022-09-12T14:24:51.507Z,100359.72
2022-09-12T14:27:17.902Z,100353.72
2022-09-12T14:29:44.169Z,100354.06
2022-09-12T14:32:10.461Z,100354.56
2022-09-12T14:34:36.742Z,100359.19
2022-09-12T14:37:03.013Z,100358.28
2022-09-12T14:39:29.353Z,100349.16
2022-09-12T14:41:55.623Z,100356.06
2022-09-12T14:44:21.891Z,100351.03
2022-09-12T14:46:48.526Z,100351.53
2022-09-12T14:49:14.840Z,100351.63
2022-09-12T14:51:41.145Z,100346.47
2022-09-12T14:54:07.475Z,100340.28
2022-09-12T14:56:33.724Z,100339.94
2022-09-12T14:59:00.751Z,100338.81
2022-09-12T15:01:27.149Z,100336.84
2022-09-12T15:03:53.921Z,100334.06
2022-09-12T15:06:20.390Z,100331.84
2022-09-12T15:08:46.676Z,100330.09
2022-09-12T15:11:13.384Z,100333.25
2022-09-12T15:13:39.644Z,100329.94
2022-09-12T15:16:05.952Z,100331.75
2022-09-12T15:18:32.237Z,100330.09
2022-09-12T15:20:58.500Z,100318.56
2022-09-12T15:23:24.757Z,100327.06
2022-09-12T15:25:51.060Z,100320.00
2022-09-12T15:28:17.440Z,100326.09
2022-09-12T15:30:43.814Z,100328.81
2022-09-12T15:33:10.078Z,100325.41
2022-09-12T15:35:36.341Z,100322.56
2022-09-12T15:38:02.603Z,100321.38
2022-09-12T15:40:28.858Z,100325.97
2022-09-12T15:42:55.255Z,100320.28
2022-09-12T15:45:21.578Z,100316.91
2022-09-12T15:47:49.689Z,100321.72
2022-09-12T15:50:15.940Z,100321.41
2022-09-12T15:52:42.225Z,100321.22
2022-09-12T15:55:08.988Z,100318.47
2022-09-12T15:57:35.285Z,100311.97
2022-09-12T16:00:01.720Z,100319.97
2022-09-12T16:02:28.033Z,100316.38
2022-09-12T16:04:55.661Z,100319.28
2022-09-12T16:07:21.920Z,100321.84
2022-09-12T16:09:48.445Z,100315.75
2022-09-12T16:12:14.716Z,100320.56
2022-09-12T16:14:40.993Z,100322.94
2022-09-12T16:17:07.990Z,100317.69
2022-09-12T16:19:34.189Z,100314.25
2022-09-12T16:22:00.461Z,100301.31
2022-09-12T16:24:26.757Z,100301.31
2022-09-12T16:26:53.003Z,100301.84
2022-09-12T16:29:19.338Z,100301.31
2022-09-12T16:31:45.611Z,100300.63
2022-09-12T16:34:11.888Z,100296.03
2022-09-12T16:36:38.235Z,100299.59
2022-09-12T16:39:04.480Z,100292.47
2022-09-12T16:41:30.737Z,100287.84
2022-09-12T16:43:57.025Z,100293.81
2022-09-12T16:46:23.341Z,100286.16
2022-09-12T16:48:52.475Z,100283.13
2022-09-12T16:51:20.199Z,100279.88
2022-09-12T16:53:46.455Z,100285.47
2022-09-12T16:56:12.936Z,100283.94
2022-09-12T16:58:41.966Z,100272.72
2022-09-12T17:01:08.509Z,100280.84
2022-09-12T17:03:35.918Z,100275.91
2022-09-12T17:06:02.205Z,100276.44
2022-09-12T17:08:28.705Z,100271.69
2022-09-12T17:10:55.036Z,100275.06
2022-09-12T17:13:21.293Z,100263.66
2022-09-12T17:15:47.580Z,100265.53
2022-09-12T17:18:13.901Z,100255.31
2022-09-12T17:20:40.162Z,100259.41
2022-09-12T17:23:09.639Z,100259.38
2022-09-12T17:25:36.204Z,100257.16
2022-09-12T17:28:05.160Z,100260.38
2022-09-12T17:30:31.407Z,100260.19
2022-09-12T17:32:57.669Z,100253.56
2022-09-12T17:35:23.998Z,100257.63
2022-09-12T17:37:50.255Z,100260.13
2022-09-12T17:40:16.627Z,100258.59
2022-09-12T17:42:43.196Z,100261.31
2022-09-12T17:45:09.976Z,100254.66
2022-09-12T17:47:36.228Z,100254.50
2022-09-12T17:50:27.768Z,100258.56
2022-09-12T17:52:48.751Z,100257.19
2022-09-12T17:55:15.336Z,100254.63
2022-09-12T17:57:41.599Z,100264.66
2022-09-12T18:00:07.853Z,100268.38
2022-09-12T18:02:34.173Z,100268.88
2022-09-12T18:05:01.620Z,100267.00
2022-09-12T18:07:27.880Z,100270.28
2022-09-12T18:09:55.062Z,100275.78
2022-09-12T18:12:21.356Z,100266.63
2022-09-12T18:14:47.618Z,100270.47
2022-09-12T18:17:13.888Z,100271.31
2022-09-12T18:19:40.221Z,100268.59
2022-09-12T18:22:06.496Z,100264.56
2022-09-12T18:24:32.765Z,100264.47
2022-09-12T18:26:59.118Z,100268.94
2022-09-12T18:29:25.433Z,100263.50
2022-09-12T18:31:52.184Z,100276.41
2022-09-12T18:34:18.631Z,100275.00
2022-09-12T18:36:44.900Z,100271.75
2022-09-12T18:39:11.159Z,100274.66
2022-09-12T18:41:37.695Z,100272.25
2022-09-12T18:44:04.956Z,100269.31
2022-09-12T18:46:34.693Z,100271.50
2022-09-12T18:49:01.813Z,100274.16
2022-09-12T18:51:34.856Z,100274.66
2022-09-12T18:54:01.135Z,100275.81
2022-09-12T18:56:27.459Z,100275.41
2022-09-12T18:58:53.741Z,100275.06
2022-09-12T19:01:20.323Z,100279.38
2022-09-12T19:03:46.696Z,100277.31
2022-09-12T19:06:13.542Z,100274.91
2022-09-12T19:08:39.816Z,100269.66
2022-09-12T19:11:06.118Z,100278.09
2022-09-12T19:13:32.381Z,100273.31
2022-09-12T19:15:58.686Z,100270.03
2022-09-12T19:18:24.959Z,100271.22
2022-09-12T19:20:51.359Z,100260.59
2022-09-12T19:23:17.625Z,100261.75
2022-09-12T19:25:45.417Z,100267.72
2022-09-12T19:28:11.679Z,100261.59
2022-09-12T19:30:41.767Z,100262.75
2022-09-12T19:33:10.610Z,100259.50
2022-09-12T19:35:37.085Z,100252.69
2022-09-12T19:38:03.752Z,100257.28
2022-09-12T19:40:30.184Z,100265.69
2022-09-12T19:42:56.457Z,100259.97
2022-09-12T19:45:22.757Z,100257.78
2022-09-12T19:47:49.019Z,100260.06
2022-09-12T19:50:16.126Z,100256.47
2022-09-12T19:52:42.400Z,100255.91
2022-09-12T19:55:08.753Z,100253.19
2022-09-12T19:57:35.011Z,100245.97
2022-09-12T20:00:01.282Z,100253.53
2022-09-12T20:02:28.014Z,100247.28
2022-09-12T20:04:54.344Z,100246.88
2022-09-12T20:07:20.641Z,100245.16
2022-09-12T20:09:47.103Z,100239.03
2022-09-12T20:12:14.408Z,100238.50
2022-09-12T20:14:40.661Z,100243.06
2022-09-12T20:17:06.916Z,100252.66
2022-09-12T20:19:33.211Z,100244.66
2022-09-12T20:21:59.772Z,100240.28
2022-09-12T20:24:26.076Z,100250.53
2022-09-12T20:26:52.497Z,100251.00
2022-09-12T20:29:18.747Z,100248.59
2022-09-12T20:31:45.010Z,100244.47
2022-09-12T20:34:14.627Z,100243.78
2022-09-12T20:36:40.912Z,100240.34
2022-09-12T20:39:07.177Z,100237.81
2022-09-12T20:41:33.473Z,100238.41
2022-09-12T20:43:59.740Z,100244.97
2022-09-12T20:46:26.100Z,100235.56
2022-09-12T20:48:52.500Z,100235.03
2022-09-12T20:51:18.827Z,100226.47
2022-09-12T20:53:45.357Z,100227.50
2022-09-12T20:56:11.651Z,100230.53
2022-09-12T20:58:43.080Z,100224.66
2022-09-12T21:01:11.247Z,100220.16
2022-09-12T21:03:37.881Z,100224.84
2022-09-12T21:06:04.139Z,100222.84
2022-09-12T21:08:30.425Z,100227.03
2022-09-12T21:10:56.745Z,100226.84
2022-09-12T21:13:23.019Z,100220.00
2022-09-12T21:15:49.311Z,100212.16
2022-09-12T21:18:15.637Z,100217.03
2022-09-12T21:20:41.894Z,100213.19
2022-09-12T21:23:08.156Z,100212.91
2022-09-12T21:25:34.425Z,100210.34
2022-09-12T21:28:00.690Z,100216.19
2022-09-12T21:30:27.565Z,100212.66
2022-09-12T21:32:53.811Z,100208.91
2022-09-12T21:35:20.224Z,100208.91
2022-09-12T21:37:46.480Z,100218.34
2022-09-12T21:40:12.766Z,100213.78
2022-09-12T21:42:39.035Z,100212.25
2022-09-12T21:45:05.296Z,100210.69
2022-09-12T21:47:31.557Z,100208.41
2022-09-12T21:49:58.368Z,100211.81
2022-09-12T21:52:24.635Z,100204.72
2022-09-12T21:54:50.901Z,100196.75
2022-09-12T21:57:17.174Z,100197.59
2022-09-12T21:59:43.434Z,100191.78
2022-09-12T22:02:10.731Z,100201.03
2022-09-12T22:04:37.037Z,100188.91
2022-09-12T22:07:03.304Z,100191.63
2022-09-12T22:09:29.569Z,100190.22
2022-09-12T22:11:55.838Z,100185.25
2022-09-12T22:14:22.103Z,100173.72
2022-09-12T22:16:49.361Z,100175.41
2022-09-12T22:19:15.629Z,100176.69
2022-09-12T22:22:01.822Z,100169.00
2022-09-12T22:24:28.076Z,100175.13
2022-09-12T22:26:54.949Z,100166.91
2022-09-12T22:29:24.236Z,100166.91
2022-09-12T22:31:50.491Z,100158.78
2022-09-12T22:34:16.756Z,100158.94
2022-09-12T22:36:43.013Z,100158.94
2022-09-12T22:39:09.288Z,100160.19
2022-09-12T22:41:35.563Z,100162.91
2022-09-12T22:44:01.829Z,100164.34
2022-09-12T22:46:29.925Z,100153.22
2022-09-12T22:48:56.253Z,100150.97
2022-09-12T22:51:22.533Z,100147.53
2022-09-12T22:53:48.937Z,100142.38
2022-09-12T22:56:15.428Z,100129.16
2022-09-12T22:58:42.151Z,100132.00
2022-09-12T23:01:08.520Z,100129.03
2022-09-12T23:03:35.151Z,100124.31
2022-09-12T23:06:01.536Z,100111.94
2022-09-12T23:08:29.511Z,100117.94
2022-09-12T23:10:55.703Z,100117.22
2022-09-12T23:13:21.964Z,100114.91
2022-09-12T23:15:49.404Z,100115.22
2022-09-12T23:18:16.035Z,100116.47
2022-09-12T23:20:42.300Z,100114.06
2022-09-12T23:23:09.579Z,100110.66
2022-09-12T23:25:35.839Z,100113.94
2022-09-12T23:28:02.100Z,100108.53
2022-09-12T23:30:28.513Z,100110.66
2022-09-12T23:32:55.051Z,100102.41
2022-09-12T23:35:21.314Z,100100.84
2022-09-12T23:37:47.599Z,100107.94
2022-09-12T23:40:13.938Z,100102.41
2022-09-12T23:42:40.364Z,100101.41
2022-09-12T23:45:06.645Z,100098.28
2022-09-12T23:47:32.939Z,100097.72
2022-09-12T23:49:59.204Z,100086.75
2022-09-12T23:52:28.561Z,100079.66
2022-09-12T23:54:54.819Z,100083.50
2022-09-12T23:57:21.069Z,100074.69
2022-09-12T23:59:47.335Z,100073.81
